sensor_id;sensor_type;location;lat;lon;timestamp;P1;durP1;ratioP1;P2;durP2;ratioP2
57339;SDS011;43174;50.930;18.170;2022-09-27T00:00:28;18.30;;;17.00;;
57339;SDS011;43174;50.930;18.170;2022-09-27T00:02:55;18.20;;;17.00;;
57339;SDS011;43174;50.930;18.170;2022-09-27T00:05:20;17.90;;;16.80;;
57339;SDS011;43174;50.930;18.170;2022-09-27T00:07:46;16.60;;;15.40;;
57339;SDS011;43174;50.930;18.170;2022-09-27T00:10:12;16.30;;;15.50;;
57339;SDS011;43174;50.930;18.170;2022-09-27T00:12:38;17.00;;;16.00;;
57339;SDS011;43174;50.930;18.170;2022-09-27T00:15:04;17.10;;;16.10;;
57339;SDS011;43174;50.930;18.170;2022-09-27T00:17:30;18.00;;;16.70;;
57339;SDS011;43174;50.930;18.170;2022-09-27T00:19:59;17.20;;;16.20;;
57339;SDS011;43174;50.930;18.170;2022-09-27T00:22:25;17.40;;;16.50;;
57339;SDS011;43174;50.930;18.170;2022-09-27T00:24:51;18.90;;;17.90;;
57339;SDS011;43174;50.930;18.170;2022-09-27T00:27:17;20.20;;;18.90;;
57339;SDS011;43174;50.930;18.170;2022-09-27T00:29:44;19.20;;;18.00;;
57339;SDS011;43174;50.930;18.170;2022-09-27T00:32:10;18.60;;;17.60;;
57339;SDS011;43174;50.930;18.170;2022-09-27T00:34:36;18.90;;;17.80;;
57339;SDS011;43174;50.930;18.170;2022-09-27T00:37:04;19.30;;;18.20;;
57339;SDS011;43174;50.930;18.170;2022-09-27T00:39:29;18.60;;;17.40;;
57339;SDS011;43174;50.930;18.170;2022-09-27T00:41:55;12.60;;;11.50;;
57339;SDS011;43174;50.930;18.170;2022-09-27T00:52:35;19.00;;;17.80;;
57339;SDS011;43174;50.930;18.170;2022-09-27T00:55:06;17.90;;;16.70;;
57339;SDS011;43174;50.930;18.170;2022-09-27T00:57:36;18.10;;;16.80;;
57339;SDS011;43174;50.930;18.170;2022-09-27T01:00:06;18.80;;;17.70;;
57339;SDS011;43174;50.930;18.170;2022-09-27T01:02:35;18.50;;;17.40;;
57339;SDS011;43174;50.930;18.170;2022-09-27T01:05:03;19.10;;;17.90;;
57339;SDS011;43174;50.930;18.170;2022-09-27T01:07:30;18.90;;;17.60;;
57339;SDS011;43174;50.930;18.170;2022-09-27T01:09:56;19.40;;;18.10;;
57339;SDS011;43174;50.930;18.170;2022-09-27T01:15:24;20.10;;;18.60;;
57339;SDS011;43174;50.930;18.170;2022-09-27T01:26:11;21.00;;;19.60;;
57339;SDS011;43174;50.930;18.170;2022-09-27T01:31:52;21.70;;;20.10;;
57339;SDS011;43174;50.930;18.170;2022-09-27T01:34:30;22.10;;;20.70;;
57339;SDS011;43174;50.930;18.170;2022-09-27T01:40:08;23.90;;;22.00;;
57339;SDS011;43174;50.930;18.170;2022-09-27T01:48:57;24.40;;;22.30;;
57339;SDS011;43174;50.930;18.170;2022-09-27T01:51:29;24.40;;;22.50;;
57339;SDS011;43174;50.930;18.170;2022-09-27T01:54:01;25.50;;;23.50;;
57339;SDS011;43174;50.930;18.170;2022-09-27T01:56:36;24.70;;;22.50;;
57339;SDS011;43174;50.930;18.170;2022-09-27T01:59:19;25.40;;;23.50;;
57339;SDS011;43174;50.930;18.170;2022-09-27T02:01:56;27.20;;;24.80;;
57339;SDS011;43174;50.930;18.170;2022-09-27T02:04:25;27.20;;;24.60;;
57339;SDS011;43174;50.930;18.170;2022-09-27T02:07:01;28.60;;;26.00;;
57339;SDS011;43174;50.930;18.170;2022-09-27T02:10:06;27.10;;;24.90;;
57339;SDS011;43174;50.930;18.170;2022-09-27T02:12:30;28.80;;;26.20;;
57339;SDS011;43174;50.930;18.170;2022-09-27T02:14:57;28.50;;;25.70;;
57339;SDS011;43174;50.930;18.170;2022-09-27T02:25:50;29.00;;;26.30;;
57339;SDS011;43174;50.930;18.170;2022-09-27T02:30:53;31.40;;;27.80;;
57339;SDS011;43174;50.930;18.170;2022-09-27T02:33:21;29.20;;;26.70;;
57339;SDS011;43174;50.930;18.170;2022-09-27T02:35:56;30.10;;;26.90;;
57339;SDS011;43174;50.930;18.170;2022-09-27T02:38:22;31.00;;;28.00;;
57339;SDS011;43174;50.930;18.170;2022-09-27T02:40:48;29.50;;;27.00;;
57339;SDS011;43174;50.930;18.170;2022-09-27T02:43:14;31.10;;;28.50;;
57339;SDS011;43174;50.930;18.170;2022-09-27T02:48:24;31.90;;;28.80;;
57339;SDS011;43174;50.930;18.170;2022-09-27T02:53:43;32.20;;;28.80;;
57339;SDS011;43174;50.930;18.170;2022-09-27T02:59:06;31.10;;;28.40;;
57339;SDS011;43174;50.930;18.170;2022-09-27T03:01:45;33.00;;;30.20;;
57339;SDS011;43174;50.930;18.170;2022-09-27T03:04:24;33.30;;;30.40;;
57339;SDS011;43174;50.930;18.170;2022-09-27T03:06:54;32.70;;;29.70;;
57339;SDS011;43174;50.930;18.170;2022-09-27T03:09:22;32.10;;;29.40;;
57339;SDS011;43174;50.930;18.170;2022-09-27T03:11:49;34.70;;;31.60;;
57339;SDS011;43174;50.930;18.170;2022-09-27T03:14:15;33.70;;;30.40;;
57339;SDS011;43174;50.930;18.170;2022-09-27T03:16:41;33.10;;;30.40;;
57339;SDS011;43174;50.930;18.170;2022-09-27T03:19:07;32.90;;;23.00;;
57339;SDS011;43174;50.930;18.170;2022-09-27T03:21:33;35.40;;;32.30;;
57339;SDS011;43174;50.930;18.170;2022-09-27T03:23:59;35.40;;;31.90;;
57339;SDS011;43174;50.930;18.170;2022-09-27T03:26:25;35.20;;;31.80;;
57339;SDS011;43174;50.930;18.170;2022-09-27T03:28:51;34.30;;;31.00;;
57339;SDS011;43174;50.930;18.170;2022-09-27T03:31:17;34.70;;;31.50;;
57339;SDS011;43174;50.930;18.170;2022-09-27T03:33:43;29.30;;;23.00;;
57339;SDS011;43174;50.930;18.170;2022-09-27T03:36:09;34.80;;;31.50;;
57339;SDS011;43174;50.930;18.170;2022-09-27T03:38:36;34.80;;;31.60;;
57339;SDS011;43174;50.930;18.170;2022-09-27T03:41:02;35.50;;;32.10;;
57339;SDS011;43174;50.930;18.170;2022-09-27T03:43:29;34.10;;;31.00;;
57339;SDS011;43174;50.930;18.170;2022-09-27T03:45:55;34.30;;;31.00;;
57339;SDS011;43174;50.930;18.170;2022-09-27T03:48:20;36.70;;;32.90;;
57339;SDS011;43174;50.930;18.170;2022-09-27T03:50:50;34.20;;;31.10;;
57339;SDS011;43174;50.930;18.170;2022-09-27T03:53:16;28.40;;;20.20;;
57339;SDS011;43174;50.930;18.170;2022-09-27T03:55:44;35.90;;;32.60;;
57339;SDS011;43174;50.930;18.170;2022-09-27T03:58:10;34.60;;;31.60;;
57339;SDS011;43174;50.930;18.170;2022-09-27T04:00:36;34.20;;;31.40;;
57339;SDS011;43174;50.930;18.170;2022-09-27T04:03:02;35.10;;;31.80;;
57339;SDS011;43174;50.930;18.170;2022-09-27T04:05:28;31.50;;;23.10;;
57339;SDS011;43174;50.930;18.170;2022-09-27T04:07:54;35.90;;;32.70;;
57339;SDS011;43174;50.930;18.170;2022-09-27T04:10:20;33.00;;;30.20;;
57339;SDS011;43174;50.930;18.170;2022-09-27T04:12:46;34.50;;;31.20;;
57339;SDS011;43174;50.930;18.170;2022-09-27T04:15:11;34.80;;;31.80;;
57339;SDS011;43174;50.930;18.170;2022-09-27T04:17:39;30.50;;;23.60;;
57339;SDS011;43174;50.930;18.170;2022-09-27T04:20:05;36.90;;;33.50;;
57339;SDS011;43174;50.930;18.170;2022-09-27T04:22:32;35.70;;;32.30;;
57339;SDS011;43174;50.930;18.170;2022-09-27T04:24:57;34.90;;;31.80;;
57339;SDS011;43174;50.930;18.170;2022-09-27T04:27:23;34.00;;;30.90;;
57339;SDS011;43174;50.930;18.170;2022-09-27T04:29:48;32.70;;;23.10;;
57339;SDS011;43174;50.930;18.170;2022-09-27T04:32:14;34.00;;;31.20;;
57339;SDS011;43174;50.930;18.170;2022-09-27T04:34:39;32.80;;;29.90;;
57339;SDS011;43174;50.930;18.170;2022-09-27T04:37:24;33.00;;;30.20;;
57339;SDS011;43174;50.930;18.170;2022-09-27T04:39:50;33.20;;;30.30;;
57339;SDS011;43174;50.930;18.170;2022-09-27T04:42:16;27.20;;;20.70;;
57339;SDS011;43174;50.930;18.170;2022-09-27T04:44:42;32.20;;;29.50;;
57339;SDS011;43174;50.930;18.170;2022-09-27T04:47:08;31.90;;;29.10;;
57339;SDS011;43174;50.930;18.170;2022-09-27T04:49:34;33.50;;;30.60;;
57339;SDS011;43174;50.930;18.170;2022-09-27T04:52:00;34.60;;;31.70;;
57339;SDS011;43174;50.930;18.170;2022-09-27T04:54:26;33.60;;;30.60;;
57339;SDS011;43174;50.930;18.170;2022-09-27T04:56:51;32.30;;;29.40;;
57339;SDS011;43174;50.930;18.170;2022-09-27T04:59:17;32.70;;;29.90;;
57339;SDS011;43174;50.930;18.170;2022-09-27T05:01:42;26.00;;;20.80;;
57339;SDS011;43174;50.930;18.170;2022-09-27T05:04:09;32.70;;;29.90;;
57339;SDS011;43174;50.930;18.170;2022-09-27T05:06:35;32.60;;;29.50;;
57339;SDS011;43174;50.930;18.170;2022-09-27T05:09:01;30.90;;;28.30;;
57339;SDS011;43174;50.930;18.170;2022-09-27T05:11:27;27.40;;;20.60;;
57339;SDS011;43174;50.930;18.170;2022-09-27T05:13:52;29.60;;;27.30;;
57339;SDS011;43174;50.930;18.170;2022-09-27T05:16:18;30.10;;;27.40;;
57339;SDS011;43174;50.930;18.170;2022-09-27T05:18:44;29.90;;;27.50;;
57339;SDS011;43174;50.930;18.170;2022-09-27T05:21:10;30.10;;;27.30;;
57339;SDS011;43174;50.930;18.170;2022-09-27T05:23:37;29.10;;;26.50;;
57339;SDS011;43174;50.930;18.170;2022-09-27T05:26:06;28.20;;;25.90;;
57339;SDS011;43174;50.930;18.170;2022-09-27T05:28:32;26.60;;;24.50;;
57339;SDS011;43174;50.930;18.170;2022-09-27T05:31:00;26.40;;;24.30;;
57339;SDS011;43174;50.930;18.170;2022-09-27T05:33:26;25.10;;;23.10;;
57339;SDS011;43174;50.930;18.170;2022-09-27T05:35:55;24.20;;;22.40;;
57339;SDS011;43174;50.930;18.170;2022-09-27T05:38:22;25.20;;;23.00;;
57339;SDS011;43174;50.930;18.170;2022-09-27T05:40:49;25.20;;;23.30;;
57339;SDS011;43174;50.930;18.170;2022-09-27T05:43:16;24.10;;;22.20;;
57339;SDS011;43174;50.930;18.170;2022-09-27T05:45:42;25.60;;;23.30;;
57339;SDS011;43174;50.930;18.170;2022-09-27T05:48:09;25.30;;;23.40;;
57339;SDS011;43174;50.930;18.170;2022-09-27T05:50:37;24.20;;;22.30;;
57339;SDS011;43174;50.930;18.170;2022-09-27T05:53:03;24.90;;;22.70;;
57339;SDS011;43174;50.930;18.170;2022-09-27T05:55:29;24.40;;;22.40;;
57339;SDS011;43174;50.930;18.170;2022-09-27T06:00:25;23.90;;;21.90;;
57339;SDS011;43174;50.930;18.170;2022-09-27T06:02:52;24.20;;;22.20;;
57339;SDS011;43174;50.930;18.170;2022-09-27T06:05:19;24.10;;;22.00;;
57339;SDS011;43174;50.930;18.170;2022-09-27T06:07:45;22.80;;;20.90;;
57339;SDS011;43174;50.930;18.170;2022-09-27T06:10:13;23.70;;;21.70;;
57339;SDS011;43174;50.930;18.170;2022-09-27T06:12:41;23.50;;;21.30;;
57339;SDS011;43174;50.930;18.170;2022-09-27T06:15:06;24.60;;;22.50;;
57339;SDS011;43174;50.930;18.170;2022-09-27T06:17:33;23.70;;;21.90;;
57339;SDS011;43174;50.930;18.170;2022-09-27T06:19:59;23.90;;;21.60;;
57339;SDS011;43174;50.930;18.170;2022-09-27T06:22:25;24.30;;;22.10;;
57339;SDS011;43174;50.930;18.170;2022-09-27T06:24:51;24.00;;;21.90;;
57339;SDS011;43174;50.930;18.170;2022-09-27T06:27:16;25.00;;;22.60;;
57339;SDS011;43174;50.930;18.170;2022-09-27T06:29:44;24.30;;;22.00;;
57339;SDS011;43174;50.930;18.170;2022-09-27T06:32:10;25.20;;;22.90;;
57339;SDS011;43174;50.930;18.170;2022-09-27T06:34:36;25.20;;;23.00;;
57339;SDS011;43174;50.930;18.170;2022-09-27T06:37:02;24.80;;;22.70;;
57339;SDS011;43174;50.930;18.170;2022-09-27T06:39:27;25.50;;;23.20;;
57339;SDS011;43174;50.930;18.170;2022-09-27T06:41:53;25.90;;;23.80;;
57339;SDS011;43174;50.930;18.170;2022-09-27T06:44:23;26.00;;;23.80;;
57339;SDS011;43174;50.930;18.170;2022-09-27T06:46:52;23.80;;;21.60;;
57339;SDS011;43174;50.930;18.170;2022-09-27T06:49:20;23.50;;;21.70;;
57339;SDS011;43174;50.930;18.170;2022-09-27T06:51:49;23.30;;;21.30;;
57339;SDS011;43174;50.930;18.170;2022-09-27T06:54:17;23.40;;;21.20;;
57339;SDS011;43174;50.930;18.170;2022-09-27T06:56:43;21.70;;;20.00;;
57339;SDS011;43174;50.930;18.170;2022-09-27T06:59:11;22.60;;;20.80;;
57339;SDS011;43174;50.930;18.170;2022-09-27T07:01:55;21.50;;;19.90;;
57339;SDS011;43174;50.930;18.170;2022-09-27T07:04:20;22.10;;;20.00;;
57339;SDS011;43174;50.930;18.170;2022-09-27T07:06:46;22.00;;;20.20;;
57339;SDS011;43174;50.930;18.170;2022-09-27T07:09:12;20.50;;;19.10;;
57339;SDS011;43174;50.930;18.170;2022-09-27T07:11:38;20.80;;;19.10;;
57339;SDS011;43174;50.930;18.170;2022-09-27T07:14:04;19.80;;;18.30;;
57339;SDS011;43174;50.930;18.170;2022-09-27T07:16:30;20.20;;;18.50;;
57339;SDS011;43174;50.930;18.170;2022-09-27T07:18:59;18.00;;;16.60;;
57339;SDS011;43174;50.930;18.170;2022-09-27T07:21:25;19.30;;;17.60;;
57339;SDS011;43174;50.930;18.170;2022-09-27T07:23:51;17.90;;;16.70;;
57339;SDS011;43174;50.930;18.170;2022-09-27T07:26:17;17.70;;;16.40;;
57339;SDS011;43174;50.930;18.170;2022-09-27T07:28:43;16.60;;;15.60;;
57339;SDS011;43174;50.930;18.170;2022-09-27T07:31:10;17.90;;;16.50;;
57339;SDS011;43174;50.930;18.170;2022-09-27T07:33:36;17.10;;;15.90;;
57339;SDS011;43174;50.930;18.170;2022-09-27T07:36:07;16.20;;;15.10;;
57339;SDS011;43174;50.930;18.170;2022-09-27T07:38:33;16.10;;;14.70;;
57339;SDS011;43174;50.930;18.170;2022-09-27T07:41:04;15.40;;;14.20;;
57339;SDS011;43174;50.930;18.170;2022-09-27T07:43:31;15.60;;;14.60;;
57339;SDS011;43174;50.930;18.170;2022-09-27T07:45:57;15.40;;;13.80;;
57339;SDS011;43174;50.930;18.170;2022-09-27T07:48:23;14.90;;;13.90;;
57339;SDS011;43174;50.930;18.170;2022-09-27T07:50:48;14.10;;;13.10;;
57339;SDS011;43174;50.930;18.170;2022-09-27T07:53:14;13.50;;;12.60;;
57339;SDS011;43174;50.930;18.170;2022-09-27T07:55:40;13.30;;;12.40;;
57339;SDS011;43174;50.930;18.170;2022-09-27T07:58:08;13.00;;;12.30;;
57339;SDS011;43174;50.930;18.170;2022-09-27T08:00:35;13.60;;;12.70;;
57339;SDS011;43174;50.930;18.170;2022-09-27T08:03:05;13.00;;;12.10;;
57339;SDS011;43174;50.930;18.170;2022-09-27T08:05:32;13.30;;;12.40;;
57339;SDS011;43174;50.930;18.170;2022-09-27T08:07:58;13.20;;;12.20;;
57339;SDS011;43174;50.930;18.170;2022-09-27T08:10:25;12.00;;;11.20;;
57339;SDS011;43174;50.930;18.170;2022-09-27T08:12:54;12.80;;;11.80;;
57339;SDS011;43174;50.930;18.170;2022-09-27T08:15:20;12.10;;;11.30;;
57339;SDS011;43174;50.930;18.170;2022-09-27T08:17:46;11.80;;;11.00;;
57339;SDS011;43174;50.930;18.170;2022-09-27T08:20:12;12.40;;;11.40;;
57339;SDS011;43174;50.930;18.170;2022-09-27T08:22:39;12.60;;;11.70;;
57339;SDS011;43174;50.930;18.170;2022-09-27T08:25:06;11.60;;;10.90;;
57339;SDS011;43174;50.930;18.170;2022-09-27T08:27:32;11.40;;;10.70;;
57339;SDS011;43174;50.930;18.170;2022-09-27T08:29:58;15.30;;;11.20;;
57339;SDS011;43174;50.930;18.170;2022-09-27T08:32:24;13.00;;;12.20;;
57339;SDS011;43174;50.930;18.170;2022-09-27T08:34:52;12.50;;;11.60;;
57339;SDS011;43174;50.930;18.170;2022-09-27T08:37:17;11.10;;;10.50;;
57339;SDS011;43174;50.930;18.170;2022-09-27T08:39:43;11.40;;;10.70;;
57339;SDS011;43174;50.930;18.170;2022-09-27T08:42:13;11.70;;;10.70;;
57339;SDS011;43174;50.930;18.170;2022-09-27T08:45:10;11.80;;;10.70;;
57339;SDS011;43174;50.930;18.170;2022-09-27T08:47:57;11.00;;;10.20;;
57339;SDS011;43174;50.930;18.170;2022-09-27T08:50:36;11.50;;;10.60;;
57339;SDS011;43174;50.930;18.170;2022-09-27T08:53:21;11.00;;;10.10;;
57339;SDS011;43174;50.930;18.170;2022-09-27T08:55:56;10.60;;;9.70;;
57339;SDS011;43174;50.930;18.170;2022-09-27T09:01:02;11.60;;;10.60;;
57339;SDS011;43174;50.930;18.170;2022-09-27T09:03:34;10.80;;;10.10;;
57339;SDS011;43174;50.930;18.170;2022-09-27T09:11:35;11.00;;;10.10;;
57339;SDS011;43174;50.930;18.170;2022-09-27T09:17:22;10.10;;;9.20;;
57339;SDS011;43174;50.930;18.170;2022-09-27T09:19:59;8.70;;;8.10;;
57339;SDS011;43174;50.930;18.170;2022-09-27T09:27:59;10.00;;;9.20;;
57339;SDS011;43174;50.930;18.170;2022-09-27T09:35:46;9.80;;;9.10;;
57339;SDS011;43174;50.930;18.170;2022-09-27T09:38:32;9.20;;;8.70;;
57339;SDS011;43174;50.930;18.170;2022-09-27T09:41:01;9.20;;;8.70;;
57339;SDS011;43174;50.930;18.170;2022-09-27T09:43:50;9.50;;;8.20;;
57339;SDS011;43174;50.930;18.170;2022-09-27T09:46:24;12.70;;;8.60;;
57339;SDS011;43174;50.930;18.170;2022-09-27T09:49:14;8.40;;;7.70;;
57339;SDS011;43174;50.930;18.170;2022-09-27T09:51:58;8.20;;;7.40;;
57339;SDS011;43174;50.930;18.170;2022-09-27T09:54:36;8.20;;;7.70;;
57339;SDS011;43174;50.930;18.170;2022-09-27T09:57:15;7.90;;;7.40;;
57339;SDS011;43174;50.930;18.170;2022-09-27T10:05:02;8.70;;;7.70;;
57339;SDS011;43174;50.930;18.170;2022-09-27T10:07:28;7.30;;;6.80;;
57339;SDS011;43174;50.930;18.170;2022-09-27T10:09:56;7.20;;;6.80;;
57339;SDS011;43174;50.930;18.170;2022-09-27T10:12:24;7.70;;;7.20;;
57339;SDS011;43174;50.930;18.170;2022-09-27T10:14:51;8.70;;;8.10;;
57339;SDS011;43174;50.930;18.170;2022-09-27T10:17:19;13.70;;;11.90;;
57339;SDS011;43174;50.930;18.170;2022-09-27T10:19:47;7.70;;;7.10;;
57339;SDS011;43174;50.930;18.170;2022-09-27T10:22:23;7.40;;;6.90;;
57339;SDS011;43174;50.930;18.170;2022-09-27T10:25:09;7.30;;;6.70;;
57339;SDS011;43174;50.930;18.170;2022-09-27T10:27:40;7.80;;;7.20;;
57339;SDS011;43174;50.930;18.170;2022-09-27T10:32:54;7.30;;;6.70;;
57339;SDS011;43174;50.930;18.170;2022-09-27T10:38:11;8.20;;;7.40;;
57339;SDS011;43174;50.930;18.170;2022-09-27T10:40:51;7.60;;;7.20;;
57339;SDS011;43174;50.930;18.170;2022-09-27T10:43:32;8.60;;;8.00;;
57339;SDS011;43174;50.930;18.170;2022-09-27T10:46:14;9.40;;;8.80;;
57339;SDS011;43174;50.930;18.170;2022-09-27T10:48:46;10.60;;;9.90;;
57339;SDS011;43174;50.930;18.170;2022-09-27T10:51:27;10.70;;;9.70;;
57339;SDS011;43174;50.930;18.170;2022-09-27T10:53:54;10.40;;;9.70;;
57339;SDS011;43174;50.930;18.170;2022-09-27T10:56:28;10.30;;;9.60;;
57339;SDS011;43174;50.930;18.170;2022-09-27T10:58:56;9.00;;;8.50;;
57339;SDS011;43174;50.930;18.170;2022-09-27T11:01:24;9.80;;;9.10;;
57339;SDS011;43174;50.930;18.170;2022-09-27T11:03:53;9.80;;;9.10;;
57339;SDS011;43174;50.930;18.170;2022-09-27T11:08:53;10.90;;;9.90;;
57339;SDS011;43174;50.930;18.170;2022-09-27T11:11:22;10.50;;;9.80;;
57339;SDS011;43174;50.930;18.170;2022-09-27T11:13:56;8.80;;;8.30;;
57339;SDS011;43174;50.930;18.170;2022-09-27T11:16:35;12.60;;;11.60;;
57339;SDS011;43174;50.930;18.170;2022-09-27T11:24:24;11.10;;;10.30;;
57339;SDS011;43174;50.930;18.170;2022-09-27T11:35:00;11.30;;;10.40;;
57339;SDS011;43174;50.930;18.170;2022-09-27T11:42:48;9.70;;;9.20;;
57339;SDS011;43174;50.930;18.170;2022-09-27T11:45:33;11.40;;;10.60;;
57339;SDS011;43174;50.930;18.170;2022-09-27T11:56:49;13.80;;;12.90;;
57339;SDS011;43174;50.930;18.170;2022-09-27T12:10:12;17.00;;;15.80;;
57339;SDS011;43174;50.930;18.170;2022-09-27T12:12:42;16.20;;;15.00;;
57339;SDS011;43174;50.930;18.170;2022-09-27T12:15:23;15.90;;;14.70;;
57339;SDS011;43174;50.930;18.170;2022-09-27T12:17:51;17.40;;;15.90;;
57339;SDS011;43174;50.930;18.170;2022-09-27T12:25:16;15.30;;;14.40;;
57339;SDS011;43174;50.930;18.170;2022-09-27T12:27:44;16.10;;;15.10;;
57339;SDS011;43174;50.930;18.170;2022-09-27T12:30:11;15.50;;;14.70;;
57339;SDS011;43174;50.930;18.170;2022-09-27T12:32:45;16.50;;;15.30;;
57339;SDS011;43174;50.930;18.170;2022-09-27T12:35:19;16.80;;;15.80;;
57339;SDS011;43174;50.930;18.170;2022-09-27T12:40:27;15.80;;;14.70;;
57339;SDS011;43174;50.930;18.170;2022-09-27T12:43:11;17.20;;;16.10;;
57339;SDS011;43174;50.930;18.170;2022-09-27T12:50:57;6.60;;;6.20;;
57339;SDS011;43174;50.930;18.170;2022-09-27T12:53:37;3.80;;;3.60;;
57339;SDS011;43174;50.930;18.170;2022-09-27T13:13:43;2.80;;;2.40;;
57339;SDS011;43174;50.930;18.170;2022-09-27T13:16:08;3.50;;;3.30;;
57339;SDS011;43174;50.930;18.170;2022-09-27T13:21:07;2.60;;;2.00;;
57339;SDS011;43174;50.930;18.170;2022-09-27T13:26:00;3.20;;;2.50;;
57339;SDS011;43174;50.930;18.170;2022-09-27T13:41:53;8.40;;;7.80;;
57339;SDS011;43174;50.930;18.170;2022-09-27T13:46:54;12.00;;;11.20;;
57339;SDS011;43174;50.930;18.170;2022-09-27T13:49:25;16.80;;;15.50;;
57339;SDS011;43174;50.930;18.170;2022-09-27T13:51:58;10.70;;;9.90;;
57339;SDS011;43174;50.930;18.170;2022-09-27T14:00:03;4.10;;;2.70;;
57339;SDS011;43174;50.930;18.170;2022-09-27T14:05:30;3.40;;;3.20;;
57339;SDS011;43174;50.930;18.170;2022-09-27T14:07:59;4.30;;;3.10;;
57339;SDS011;43174;50.930;18.170;2022-09-27T14:10:26;3.30;;;3.10;;
57339;SDS011;43174;50.930;18.170;2022-09-27T14:12:54;2.60;;;2.40;;
57339;SDS011;43174;50.930;18.170;2022-09-27T14:15:24;2.90;;;2.40;;
57339;SDS011;43174;50.930;18.170;2022-09-27T14:17:51;2.10;;;1.90;;
57339;SDS011;43174;50.930;18.170;2022-09-27T14:22:59;2.20;;;2.00;;
57339;SDS011;43174;50.930;18.170;2022-09-27T14:25:25;2.70;;;1.80;;
57339;SDS011;43174;50.930;18.170;2022-09-27T14:27:51;2.80;;;2.30;;
57339;SDS011;43174;50.930;18.170;2022-09-27T14:30:21;2.60;;;2.50;;
57339;SDS011;43174;50.930;18.170;2022-09-27T14:32:52;3.30;;;2.40;;
57339;SDS011;43174;50.930;18.170;2022-09-27T14:35:29;4.80;;;2.90;;
57339;SDS011;43174;50.930;18.170;2022-09-27T14:38:15;2.70;;;2.50;;
57339;SDS011;43174;50.930;18.170;2022-09-27T14:40:53;2.30;;;2.10;;
57339;SDS011;43174;50.930;18.170;2022-09-27T14:43:24;3.40;;;2.80;;
57339;SDS011;43174;50.930;18.170;2022-09-27T14:45:51;3.90;;;3.30;;
57339;SDS011;43174;50.930;18.170;2022-09-27T14:48:19;3.80;;;3.50;;
57339;SDS011;43174;50.930;18.170;2022-09-27T14:50:54;2.80;;;2.60;;
57339;SDS011;43174;50.930;18.170;2022-09-27T14:53:26;4.20;;;3.20;;
57339;SDS011;43174;50.930;18.170;2022-09-27T14:55:57;4.90;;;4.60;;
57339;SDS011;43174;50.930;18.170;2022-09-27T14:58:25;18.90;;;17.50;;
57339;SDS011;43174;50.930;18.170;2022-09-27T15:00:51;35.20;;;31.40;;
57339;SDS011;43174;50.930;18.170;2022-09-27T15:03:22;42.80;;;29.60;;
57339;SDS011;43174;50.930;18.170;2022-09-27T15:06:01;52.60;;;32.10;;
57339;SDS011;43174;50.930;18.170;2022-09-27T15:08:29;76.60;;;46.00;;
57339;SDS011;43174;50.930;18.170;2022-09-27T15:10:55;65.40;;;43.10;;
57339;SDS011;43174;50.930;18.170;2022-09-27T15:13:21;47.60;;;36.10;;
57339;SDS011;43174;50.930;18.170;2022-09-27T15:15:48;24.20;;;21.80;;
57339;SDS011;43174;50.930;18.170;2022-09-27T15:18:48;15.30;;;14.20;;
57339;SDS011;43174;50.930;18.170;2022-09-27T15:21:08;17.50;;;16.40;;
57339;SDS011;43174;50.930;18.170;2022-09-27T15:23:36;58.40;;;40.20;;
57339;SDS011;43174;50.930;18.170;2022-09-27T15:29:03;4.40;;;4.10;;
57339;SDS011;43174;50.930;18.170;2022-09-27T15:31:29;11.40;;;10.80;;
57339;SDS011;43174;50.930;18.170;2022-09-27T15:33:56;8.60;;;7.70;;
57339;SDS011;43174;50.930;18.170;2022-09-27T15:39:57;183.50;;;108.50;;
57339;SDS011;43174;50.930;18.170;2022-09-27T15:42:13;8.80;;;7.20;;
57339;SDS011;43174;50.930;18.170;2022-09-27T15:44:48;28.20;;;20.10;;
57339;SDS011;43174;50.930;18.170;2022-09-27T15:52:43;3.50;;;3.30;;
57339;SDS011;43174;50.930;18.170;2022-09-27T15:55:11;2.90;;;2.50;;
57339;SDS011;43174;50.930;18.170;2022-09-27T15:57:41;3.30;;;2.40;;
57339;SDS011;43174;50.930;18.170;2022-09-27T16:00:13;2.50;;;2.30;;
57339;SDS011;43174;50.930;18.170;2022-09-27T16:02:43;2.90;;;2.60;;
57339;SDS011;43174;50.930;18.170;2022-09-27T16:05:10;3.10;;;2.80;;
57339;SDS011;43174;50.930;18.170;2022-09-27T16:07:36;3.30;;;2.60;;
57339;SDS011;43174;50.930;18.170;2022-09-27T16:10:23;3.00;;;2.40;;
57339;SDS011;43174;50.930;18.170;2022-09-27T16:12:52;4.40;;;2.70;;
57339;SDS011;43174;50.930;18.170;2022-09-27T16:15:17;3.10;;;2.80;;
57339;SDS011;43174;50.930;18.170;2022-09-27T16:17:43;3.30;;;3.00;;
57339;SDS011;43174;50.930;18.170;2022-09-27T16:20:14;3.70;;;3.40;;
57339;SDS011;43174;50.930;18.170;2022-09-27T16:22:42;3.40;;;3.20;;
57339;SDS011;43174;50.930;18.170;2022-09-27T16:25:08;3.60;;;3.40;;
57339;SDS011;43174;50.930;18.170;2022-09-27T16:27:34;3.90;;;3.60;;
57339;SDS011;43174;50.930;18.170;2022-09-27T16:29:59;3.60;;;3.30;;
57339;SDS011;43174;50.930;18.170;2022-09-27T16:32:28;3.40;;;3.20;;
57339;SDS011;43174;50.930;18.170;2022-09-27T16:34:54;3.60;;;3.40;;
57339;SDS011;43174;50.930;18.170;2022-09-27T16:37:22;4.00;;;3.70;;
57339;SDS011;43174;50.930;18.170;2022-09-27T16:39:48;3.90;;;3.50;;
57339;SDS011;43174;50.930;18.170;2022-09-27T16:42:13;4.00;;;3.80;;
57339;SDS011;43174;50.930;18.170;2022-09-27T16:44:40;4.10;;;3.90;;
57339;SDS011;43174;50.930;18.170;2022-09-27T16:47:05;4.80;;;4.50;;
57339;SDS011;43174;50.930;18.170;2022-09-27T16:49:32;5.10;;;4.80;;
57339;SDS011;43174;50.930;18.170;2022-09-27T16:52:16;5.70;;;5.30;;
57339;SDS011;43174;50.930;18.170;2022-09-27T16:54:42;5.60;;;5.20;;
57339;SDS011;43174;50.930;18.170;2022-09-27T16:57:08;6.50;;;5.80;;
57339;SDS011;43174;50.930;18.170;2022-09-27T16:59:34;6.10;;;5.70;;
57339;SDS011;43174;50.930;18.170;2022-09-27T17:02:00;5.80;;;5.40;;
57339;SDS011;43174;50.930;18.170;2022-09-27T17:04:28;5.90;;;5.40;;
57339;SDS011;43174;50.930;18.170;2022-09-27T17:06:54;7.00;;;6.30;;
57339;SDS011;43174;50.930;18.170;2022-09-27T17:09:21;7.20;;;6.70;;
57339;SDS011;43174;50.930;18.170;2022-09-27T17:11:47;6.80;;;6.30;;
57339;SDS011;43174;50.930;18.170;2022-09-27T17:14:13;6.20;;;5.90;;
57339;SDS011;43174;50.930;18.170;2022-09-27T17:16:44;7.30;;;6.80;;
57339;SDS011;43174;50.930;18.170;2022-09-27T17:19:11;8.60;;;8.00;;
57339;SDS011;43174;50.930;18.170;2022-09-27T17:21:38;12.00;;;11.30;;
57339;SDS011;43174;50.930;18.170;2022-09-27T17:24:07;8.70;;;8.10;;
57339;SDS011;43174;50.930;18.170;2022-09-27T17:26:34;7.90;;;7.40;;
57339;SDS011;43174;50.930;18.170;2022-09-27T17:29:00;10.30;;;9.40;;
57339;SDS011;43174;50.930;18.170;2022-09-27T17:31:27;14.50;;;13.40;;
57339;SDS011;43174;50.930;18.170;2022-09-27T17:33:55;15.40;;;14.20;;
57339;SDS011;43174;50.930;18.170;2022-09-27T17:36:22;22.80;;;20.80;;
57339;SDS011;43174;50.930;18.170;2022-09-27T17:38:50;10.20;;;9.50;;
57339;SDS011;43174;50.930;18.170;2022-09-27T17:41:17;12.20;;;11.10;;
57339;SDS011;43174;50.930;18.170;2022-09-27T17:43:44;11.40;;;10.70;;
57339;SDS011;43174;50.930;18.170;2022-09-27T17:46:18;10.50;;;9.90;;
57339;SDS011;43174;50.930;18.170;2022-09-27T17:48:45;11.60;;;10.80;;